createdAt,value
2018-07-27T00:01:43.636Z,12.57
2018-07-27T00:04:11.982Z,13.13
2018-07-27T00:06:40.220Z,12.90
2018-07-27T00:09:10.413Z,12.47
2018-07-27T00:11:38.795Z,12.70
2018-07-27T00:14:07.079Z,13.20
2018-07-27T00:16:35.442Z,11.10
2018-07-27T00:19:03.940Z,11.73
2018-07-27T00:21:32.343Z,12.57
2018-07-27T00:24:00.692Z,12.10
2018-07-27T00:26:28.983Z,12.50
2018-07-27T00:28:57.248Z,10.87
2018-07-27T00:31:25.520Z,11.20
2018-07-27T00:33:53.816Z,11.97
2018-07-27T00:36:22.220Z,12.23
2018-07-27T00:38:50.475Z,10.87
2018-07-27T00:41:18.756Z,11.97
2018-07-27T00:43:46.843Z,12.80
2018-07-27T00:46:14.850Z,12.40
2018-07-27T00:48:43.150Z,12.73
2018-07-27T00:51:11.404Z,10.50
2018-07-27T00:53:39.435Z,11.27
2018-07-27T00:56:07.764Z,10.93
2018-07-27T00:58:36.071Z,10.80
2018-07-27T01:01:04.357Z,10.10
2018-07-27T01:03:32.358Z,9.80
2018-07-27T01:06:00.777Z,10.87
2018-07-27T01:08:29.101Z,10.33
2018-07-27T01:10:57.383Z,10.90
2018-07-27T01:13:25.646Z,10.30
2018-07-27T01:15:53.943Z,10.57
2018-07-27T01:18:22.260Z,10.17
2018-07-27T01:20:50.542Z,10.60
2018-07-27T01:23:18.843Z,10.53
2018-07-27T01:25:46.876Z,10.53
2018-07-27T01:28:15.175Z,10.77
2018-07-27T01:30:43.456Z,9.40
2018-07-27T01:33:11.727Z,11.03
2018-07-27T01:35:40.018Z,10.30
2018-07-27T01:38:08.281Z,11.07
2018-07-27T01:40:36.563Z,10.67
2018-07-27T01:43:04.892Z,10.60
2018-07-27T01:45:33.195Z,10.47
2018-07-27T01:48:01.508Z,11.43
2018-07-27T01:50:29.775Z,10.80
2018-07-27T01:52:58.080Z,12.07
2018-07-27T01:55:26.388Z,11.90
2018-07-27T01:57:54.415Z,11.77
2018-07-27T02:00:22.741Z,13.67
2018-07-27T02:02:51.028Z,12.20
2018-07-27T02:05:19.310Z,12.83
2018-07-27T02:07:47.935Z,12.50
2018-07-27T02:10:15.959Z,13.90
2018-07-27T02:12:44.588Z,12.37
2018-07-27T02:15:12.924Z,13.17
2018-07-27T02:17:41.239Z,12.90
2018-07-27T02:20:09.562Z,13.83
2018-07-27T02:22:37.906Z,13.20
2018-07-27T02:25:06.364Z,13.93
2018-07-27T02:27:34.405Z,13.27
2018-07-27T02:30:04.264Z,13.63
2018-07-27T02:32:32.557Z,14.00
2018-07-27T02:35:00.547Z,12.57
2018-07-27T02:37:28.620Z,14.93
2018-07-27T02:39:56.681Z,13.07
2018-07-27T02:42:24.979Z,13.60
2018-07-27T02:44:53.277Z,13.37
2018-07-27T02:47:21.560Z,13.07
2018-07-27T02:49:49.999Z,12.30
2018-07-27T02:52:18.308Z,13.80
2018-07-27T02:54:46.642Z,13.63
2018-07-27T02:57:14.655Z,12.10
2018-07-27T02:59:42.974Z,14.33
2018-07-27T03:02:11.232Z,13.40
2018-07-27T03:04:40.094Z,12.13
2018-07-27T03:07:08.404Z,13.50
2018-07-27T03:09:36.494Z,12.10
2018-07-27T03:12:04.909Z,12.60
2018-07-27T03:14:33.220Z,12.47
2018-07-27T03:17:01.516Z,12.77
2018-07-27T03:19:29.781Z,13.13
2018-07-27T03:21:58.405Z,10.73
2018-07-27T03:24:26.748Z,12.40
2018-07-27T03:26:55.084Z,11.30
2018-07-27T03:29:23.385Z,12.53
2018-07-27T03:31:51.706Z,11.17
2018-07-27T03:34:20.005Z,11.40
2018-07-27T03:36:48.283Z,11.30
2018-07-27T03:39:16.747Z,13.20
2018-07-27T03:41:45.066Z,11.20
2018-07-27T03:44:13.339Z,12.37
2018-07-27T03:46:41.332Z,14.03
2018-07-27T03:49:09.603Z,12.10
2018-07-27T03:51:37.640Z,11.83
2018-07-27T03:54:06.240Z,12.37
2018-07-27T03:56:34.693Z,12.10
2018-07-27T03:59:03.043Z,13.70
2018-07-27T04:01:31.355Z,17.33
2018-07-27T04:03:59.369Z,14.03
2018-07-27T04:06:27.827Z,11.93
2018-07-27T04:08:56.151Z,14.97
2018-07-27T04:11:24.521Z,13.57
2018-07-27T04:13:53.143Z,14.07
2018-07-27T04:16:21.444Z,13.57
2018-07-27T04:18:49.803Z,13.40
2018-07-27T04:21:18.232Z,15.00
2018-07-27T04:23:46.727Z,14.27
2018-07-27T04:26:15.055Z,11.77
2018-07-27T04:28:43.371Z,13.73
2018-07-27T04:31:11.699Z,13.67
2018-07-27T04:33:39.994Z,16.53
2018-07-27T04:36:08.305Z,12.93
2018-07-27T04:38:36.870Z,13.57
2018-07-27T04:41:05.160Z,14.77
2018-07-27T04:43:33.488Z,14.47
2018-07-27T04:46:01.500Z,12.53
2018-07-27T04:48:29.780Z,13.77
2018-07-27T04:50:58.063Z,13.57
2018-07-27T04:53:26.345Z,13.17
2018-07-27T04:55:54.499Z,13.40
2018-07-27T04:58:22.808Z,12.57
2018-07-27T05:00:50.878Z,14.33
2018-07-27T05:03:19.188Z,13.27
2018-07-27T05:05:47.771Z,14.23
2018-07-27T05:08:16.744Z,12.83
2018-07-27T05:10:49.843Z,14.00
2018-07-27T05:13:19.045Z,12.53
2018-07-27T05:15:48.255Z,11.80
2018-07-27T05:18:17.236Z,13.87
2018-07-27T05:20:45.539Z,14.40
2018-07-27T05:23:13.988Z,12.20
2018-07-27T05:25:42.233Z,11.07
2018-07-27T05:28:10.744Z,14.80
2018-07-27T05:30:39.047Z,14.27
2018-07-27T05:33:07.357Z,14.90
2018-07-27T05:35:35.380Z,12.00
2018-07-27T05:38:03.704Z,13.10
2018-07-27T05:40:32.056Z,10.73
2018-07-27T05:43:00.352Z,10.17
2018-07-27T05:45:28.653Z,10.57
2018-07-27T05:47:56.927Z,12.67
2018-07-27T05:50:25.244Z,11.50
2018-07-27T05:52:53.538Z,12.37
2018-07-27T05:55:21.856Z,10.30
2018-07-27T05:57:49.938Z,10.07
2018-07-27T06:00:18.236Z,10.13
2018-07-27T06:02:46.639Z,10.57
2018-07-27T06:05:14.888Z,11.07
2018-07-27T06:07:42.998Z,9.83
2018-07-27T06:10:11.263Z,8.30
2018-07-27T06:12:39.566Z,11.03
2018-07-27T06:15:07.640Z,8.37
2018-07-27T06:17:35.644Z,9.07
2018-07-27T06:20:04.703Z,8.77
2018-07-27T06:22:32.978Z,9.37
2018-07-27T06:25:01.251Z,8.97
2018-07-27T06:27:29.546Z,9.93
2018-07-27T06:29:58.239Z,7.10
2018-07-27T06:32:26.633Z,11.17
2018-07-27T06:34:54.958Z,8.53
2018-07-27T06:37:23.255Z,9.20
2018-07-27T06:39:51.247Z,7.33
2018-07-27T06:42:19.500Z,6.93
2018-07-27T06:44:47.764Z,8.30
2018-07-27T06:47:16.068Z,8.43
2018-07-27T06:49:44.342Z,9.40
2018-07-27T06:52:12.655Z,7.00
2018-07-27T06:54:40.916Z,7.27
2018-07-27T06:57:09.196Z,7.17
2018-07-27T06:59:37.486Z,6.53
2018-07-27T07:02:05.729Z,8.07
2018-07-27T07:04:34.012Z,8.10
2018-07-27T07:07:02.337Z,5.23
2018-07-27T07:09:30.631Z,8.57
2018-07-27T07:11:58.947Z,6.10
2018-07-27T07:14:27.326Z,6.43
2018-07-27T07:16:55.339Z,6.00
2018-07-27T07:19:23.616Z,7.70
2018-07-27T07:21:51.884Z,5.60
2018-07-27T07:24:20.131Z,6.30
2018-07-27T07:26:48.139Z,7.70
2018-07-27T07:29:16.384Z,11.30
2018-07-27T07:31:44.649Z,5.70
2018-07-27T07:34:12.933Z,5.00
2018-07-27T07:36:41.220Z,5.40
2018-07-27T07:39:11.130Z,6.43
2018-07-27T07:41:40.332Z,5.70
2018-07-27T07:44:09.156Z,10.40
2018-07-27T07:46:38.037Z,5.90
2018-07-27T07:49:07.145Z,6.67
2018-07-27T07:51:36.761Z,7.63
2018-07-27T07:54:14.526Z,7.13
2018-07-27T07:56:57.980Z,7.80
2018-07-27T07:59:26.275Z,10.57
2018-07-27T08:01:57.429Z,10.10
2018-07-27T08:04:37.237Z,7.33
2018-07-27T08:07:06.377Z,8.17
2018-07-27T08:09:34.667Z,7.33
2018-07-27T08:12:02.958Z,7.23
2018-07-27T08:14:31.303Z,8.67
2018-07-27T08:16:59.628Z,6.30
2018-07-27T08:19:27.937Z,5.17
2018-07-27T08:21:56.040Z,5.90
2018-07-27T08:24:24.087Z,8.80
2018-07-27T08:26:54.514Z,6.07
2018-07-27T08:29:24.041Z,7.80
2018-07-27T08:31:53.056Z,8.30
2018-07-27T08:34:21.604Z,8.10
2018-07-27T08:36:50.303Z,5.17
2018-07-27T08:39:22.246Z,5.60
2018-07-27T08:41:50.978Z,8.13
2018-07-27T08:44:21.689Z,5.27
2018-07-27T08:46:49.696Z,5.30
2018-07-27T08:49:17.928Z,6.67
2018-07-27T08:51:46.323Z,4.93
2018-07-27T08:54:14.664Z,4.90
2018-07-27T08:56:55.479Z,7.63
2018-07-27T08:59:23.789Z,6.53
2018-07-27T09:01:52.095Z,5.83
2018-07-27T09:04:20.374Z,7.43
2018-07-27T09:06:48.641Z,6.97
2018-07-27T09:09:18.087Z,6.97
2018-07-27T09:11:46.403Z,6.07
2018-07-27T09:14:14.792Z,6.97
2018-07-27T09:16:43.099Z,6.13
2018-07-27T09:19:11.437Z,4.67
2018-07-27T09:21:40.920Z,5.17
2018-07-27T09:24:09.232Z,6.27
2018-07-27T09:26:37.510Z,6.43
2018-07-27T09:29:05.785Z,9.27
2018-07-27T09:31:34.062Z,9.27
2018-07-27T09:34:02.360Z,7.03
2018-07-27T09:36:30.639Z,8.03
2018-07-27T09:38:58.926Z,4.90
2018-07-27T09:41:27.235Z,5.33
2018-07-27T09:43:55.604Z,7.63
2018-07-27T09:46:23.859Z,9.33
2018-07-27T09:48:52.918Z,4.67
2018-07-27T09:51:22.405Z,4.67
2018-07-27T09:53:50.975Z,4.37
2018-07-27T09:56:19.234Z,4.50
2018-07-27T09:58:47.559Z,4.27
2018-07-27T10:01:22.850Z,5.53
2018-07-27T10:03:51.864Z,5.93
2018-07-27T10:06:20.344Z,7.07
2018-07-27T10:08:51.878Z,7.30
2018-07-27T10:11:20.640Z,5.90
2018-07-27T10:13:48.940Z,5.37
2018-07-27T10:16:17.924Z,4.87
2018-07-27T10:18:46.293Z,4.50
2018-07-27T10:21:14.601Z,4.47
2018-07-27T10:23:42.987Z,4.40
2018-07-27T10:26:11.295Z,4.20
2018-07-27T10:28:39.667Z,4.60
2018-07-27T10:31:07.956Z,5.33
2018-07-27T10:33:36.233Z,6.57
2018-07-27T10:36:04.485Z,6.57
2018-07-27T10:38:32.841Z,5.47
2018-07-27T10:41:01.151Z,4.70
2018-07-27T10:43:29.171Z,5.67
2018-07-27T10:45:57.464Z,4.87
2018-07-27T10:48:25.740Z,6.87
2018-07-27T10:50:54.028Z,5.00
2018-07-27T10:53:22.297Z,6.27
2018-07-27T10:55:50.482Z,6.27
2018-07-27T10:58:18.499Z,4.47
2018-07-27T11:00:46.764Z,5.60
2018-07-27T11:03:15.034Z,4.57
2018-07-27T11:05:43.092Z,7.20
2018-07-27T11:08:11.371Z,4.40
2018-07-27T11:10:39.963Z,4.97
2018-07-27T11:13:08.267Z,4.43
2018-07-27T11:15:36.525Z,5.20
2018-07-27T11:18:06.292Z,4.50
2018-07-27T11:20:34.300Z,5.93
2018-07-27T11:23:02.551Z,7.23
2018-07-27T11:25:31.017Z,6.47
2018-07-27T11:27:59.253Z,6.90
2018-07-27T11:30:27.298Z,4.83
2018-07-27T11:32:55.556Z,5.30
2018-07-27T11:35:24.017Z,4.50
2018-07-27T11:37:52.492Z,5.37
2018-07-27T11:40:20.827Z,4.93
2018-07-27T11:42:49.156Z,6.53
2018-07-27T11:45:17.449Z,6.07
2018-07-27T11:47:45.727Z,5.97
2018-07-27T11:50:14.012Z,5.20
2018-07-27T11:52:42.479Z,6.37
2018-07-27T11:55:10.728Z,5.13
2018-07-27T11:57:39.023Z,4.53
2018-07-27T12:00:07.024Z,4.43
2018-07-27T12:02:35.306Z,7.00
2018-07-27T12:05:03.585Z,4.57
2018-07-27T12:07:31.836Z,5.13
2018-07-27T12:10:00.110Z,6.63
2018-07-27T12:12:28.368Z,4.97
2018-07-27T12:14:56.759Z,4.73
2018-07-27T12:17:24.927Z,4.87
2018-07-27T12:19:52.928Z,5.53
2018-07-27T12:22:21.243Z,5.87
2018-07-27T12:24:49.506Z,5.83
2018-07-27T12:27:17.912Z,4.67
2018-07-27T12:29:46.285Z,4.73
2018-07-27T12:32:14.577Z,4.00
2018-07-27T12:34:42.971Z,4.67
2018-07-27T12:37:11.229Z,4.90
2018-07-27T12:39:39.480Z,5.17
2018-07-27T12:42:07.753Z,6.40
2018-07-27T12:44:36.008Z,6.57
2018-07-27T12:47:04.781Z,5.23
2018-07-27T12:49:33.052Z,4.40
2018-07-27T12:52:01.329Z,6.13
2018-07-27T12:54:29.593Z,4.67
2018-07-27T12:56:57.944Z,6.50
2018-07-27T12:59:26.456Z,3.73
2018-07-27T13:01:54.746Z,6.37
2018-07-27T13:04:23.096Z,4.33
2018-07-27T13:06:51.372Z,4.80
2018-07-27T13:09:19.669Z,5.23
2018-07-27T13:11:48.276Z,5.03
2018-07-27T13:14:16.555Z,6.30
2018-07-27T13:16:44.826Z,4.80
2018-07-27T13:19:13.865Z,5.87
2018-07-27T13:21:42.216Z,4.83
2018-07-27T13:24:10.841Z,4.87
2018-07-27T13:26:39.173Z,5.13
2018-07-27T13:29:07.379Z,7.13
2018-07-27T13:31:57.600Z,6.43
2018-07-27T13:34:40.667Z,4.77
2018-07-27T13:37:08.812Z,4.60
2018-07-27T13:39:37.609Z,5.03
2018-07-27T13:42:06.713Z,4.80
2018-07-27T13:44:36.312Z,6.37
2018-07-27T13:47:05.227Z,5.47
2018-07-27T13:49:33.486Z,4.13
2018-07-27T13:52:01.908Z,4.03
2018-07-27T13:54:31.230Z,4.50
2018-07-27T13:56:59.603Z,4.53
2018-07-27T13:59:28.249Z,4.10
2018-07-27T14:01:56.973Z,4.33
2018-07-27T14:04:25.019Z,4.00
2018-07-27T14:06:55.328Z,4.63
2018-07-27T14:09:23.628Z,4.20
2018-07-27T14:11:51.900Z,4.70
2018-07-27T14:14:20.163Z,6.20
2018-07-27T14:16:48.413Z,5.23
2018-07-27T14:19:17.589Z,3.77
2018-07-27T14:21:45.908Z,4.23
2018-07-27T14:24:14.661Z,4.30
2018-07-27T14:26:43.141Z,3.97
2018-07-27T14:29:11.422Z,4.07
2018-07-27T14:31:39.477Z,4.43
2018-07-27T14:34:08.129Z,5.27
2018-07-27T14:36:36.436Z,4.20
2018-07-27T14:39:08.631Z,3.80
2018-07-27T14:41:37.283Z,4.30
2018-07-27T14:44:05.652Z,4.03
2018-07-27T14:46:34.121Z,6.67
2018-07-27T14:49:02.404Z,7.70
2018-07-27T14:51:30.706Z,4.63
2018-07-27T14:53:58.989Z,7.10
2018-07-27T14:56:27.307Z,4.80
2018-07-27T14:58:55.560Z,4.33
2018-07-27T15:01:23.836Z,3.70
2018-07-27T15:03:52.136Z,4.07
2018-07-27T15:06:20.404Z,5.23
2018-07-27T15:08:48.670Z,3.70
2018-07-27T15:11:16.944Z,5.13
2018-07-27T15:13:45.208Z,3.90
2018-07-27T15:16:13.485Z,4.70
2018-07-27T15:18:42.504Z,4.13
2018-07-27T15:21:11.316Z,4.97
2018-07-27T15:23:39.696Z,3.60
2018-07-27T15:26:07.980Z,7.30
2018-07-27T15:28:36.425Z,5.53
2018-07-27T15:31:04.737Z,3.70
2018-07-27T15:33:33.209Z,4.43
2018-07-27T15:36:01.564Z,3.60
2018-07-27T15:38:29.900Z,3.87
2018-07-27T15:40:58.277Z,6.40
2018-07-27T15:43:26.535Z,3.47
2018-07-27T15:45:54.852Z,3.63
2018-07-27T15:48:23.651Z,3.10
2018-07-27T15:50:51.865Z,4.17
2018-07-27T15:53:20.120Z,4.30
2018-07-27T15:55:48.391Z,4.17
2018-07-27T15:58:16.644Z,3.97
2018-07-27T16:00:44.947Z,3.43
2018-07-27T16:03:13.067Z,4.10
2018-07-27T16:05:41.405Z,4.23
2018-07-27T16:08:09.691Z,7.27
2018-07-27T16:10:37.968Z,5.17
2018-07-27T16:13:06.020Z,4.90
2018-07-27T16:15:34.287Z,3.83
2018-07-27T16:18:02.570Z,4.00
2018-07-27T16:20:30.904Z,3.57
2018-07-27T16:22:59.356Z,4.47
2018-07-27T16:25:27.375Z,5.40
2018-07-27T16:27:55.714Z,3.83
2018-07-27T16:30:23.782Z,5.40
2018-07-27T16:32:52.085Z,4.27
2018-07-27T16:35:20.067Z,4.10
2018-07-27T16:37:48.191Z,4.73
2018-07-27T16:40:16.480Z,5.57
2018-07-27T16:42:44.980Z,3.90
2018-07-27T16:45:13.266Z,4.20
2018-07-27T16:47:41.554Z,4.17
2018-07-27T16:50:09.819Z,5.13
2018-07-27T16:52:38.113Z,3.40
2018-07-27T16:55:06.432Z,3.90
2018-07-27T16:57:34.744Z,5.10
2018-07-27T17:00:03.070Z,3.70
2018-07-27T17:02:32.357Z,3.87
2018-07-27T17:05:03.318Z,4.53
2018-07-27T17:07:46.494Z,5.10
2018-07-27T17:10:14.779Z,4.13
2018-07-27T17:12:43.196Z,4.27
2018-07-27T17:15:11.513Z,5.13
2018-07-27T17:17:39.839Z,4.60
2018-07-27T17:20:08.652Z,4.80
2018-07-27T17:22:37.268Z,6.00
2018-07-27T17:25:05.566Z,5.43
2018-07-27T17:27:34.026Z,6.60
2018-07-27T17:30:02.316Z,5.37
2018-07-27T17:32:30.684Z,5.50
2018-07-27T17:34:58.712Z,5.97
2018-07-27T17:37:27.066Z,4.87
2018-07-27T17:39:55.407Z,5.63
2018-07-27T17:42:23.716Z,4.90
2018-07-27T17:44:51.979Z,7.10
2018-07-27T17:47:20.547Z,8.70
2018-07-27T17:49:48.820Z,7.53
2018-07-27T17:52:17.087Z,6.27
2018-07-27T17:54:45.156Z,8.00
2018-07-27T17:57:13.384Z,6.53
2018-07-27T17:59:41.649Z,4.83
2018-07-27T18:02:09.641Z,5.87
2018-07-27T18:04:37.923Z,5.73
2018-07-27T18:07:05.975Z,6.90
2018-07-27T18:09:34.231Z,5.50
2018-07-27T18:12:02.490Z,6.17
2018-07-27T18:14:30.788Z,8.03
2018-07-27T18:16:59.047Z,5.47
2018-07-27T18:19:27.075Z,6.37
2018-07-27T18:21:55.373Z,5.57
2018-07-27T18:24:23.654Z,5.63
2018-07-27T18:26:51.941Z,7.33
2018-07-27T18:29:20.234Z,6.20
2018-07-27T18:31:48.535Z,7.40
2018-07-27T18:34:16.679Z,5.53
2018-07-27T18:36:45.832Z,7.30
2018-07-27T18:39:14.161Z,4.83
2018-07-27T18:41:42.152Z,5.37
2018-07-27T18:44:10.425Z,6.50
2018-07-27T18:46:39.593Z,6.07
2018-07-27T18:49:07.892Z,7.60
2018-07-27T18:51:37.130Z,5.27
2018-07-27T18:54:05.384Z,6.10
2018-07-27T18:56:33.852Z,5.60
2018-07-27T18:59:01.836Z,5.53
2018-07-27T19:01:30.170Z,7.30
2018-07-27T19:03:58.427Z,5.87
2018-07-27T19:06:26.843Z,7.00
2018-07-27T19:08:55.327Z,5.77
2018-07-27T19:11:24.211Z,5.50
2018-07-27T19:13:53.177Z,6.10
2018-07-27T19:16:21.466Z,6.00
2018-07-27T19:18:49.769Z,8.27
2018-07-27T19:21:18.093Z,4.53
2018-07-27T19:23:46.389Z,5.30
2018-07-27T19:26:14.650Z,5.77
2018-07-27T19:28:42.915Z,6.33
2018-07-27T19:31:11.314Z,5.17
2018-07-27T19:33:39.576Z,4.90
2018-07-27T19:36:07.656Z,4.00
2018-07-27T19:38:35.810Z,4.70
2018-07-27T19:41:05.137Z,5.30
2018-07-27T19:43:33.420Z,8.03
2018-07-27T19:46:01.768Z,5.23
2018-07-27T19:48:30.138Z,6.27
2018-07-27T19:50:58.461Z,5.50
2018-07-27T19:53:27.078Z,6.23
2018-07-27T19:55:55.443Z,4.90
2018-07-27T19:58:23.739Z,4.87
2018-07-27T20:00:52.072Z,5.13
2018-07-27T20:03:20.343Z,5.27
2018-07-27T20:05:48.628Z,5.13
2018-07-27T20:08:17.019Z,4.13
2018-07-27T20:10:45.544Z,5.63
2018-07-27T20:13:13.790Z,4.67
2018-07-27T20:15:42.080Z,5.73
2018-07-27T20:18:10.400Z,5.77
2018-07-27T20:20:38.836Z,4.60
2018-07-27T20:23:07.095Z,5.67
2018-07-27T20:25:35.384Z,4.87
2018-07-27T20:28:03.415Z,4.30
2018-07-27T20:30:31.807Z,4.47
2018-07-27T20:33:00.441Z,6.13
2018-07-27T20:35:28.724Z,4.57
2018-07-27T20:37:56.787Z,4.47
2018-07-27T20:40:25.081Z,5.13
2018-07-27T20:42:53.350Z,4.77
2018-07-27T20:45:21.728Z,5.03
2018-07-27T20:47:49.982Z,5.30
2018-07-27T20:50:18.558Z,5.87
2018-07-27T20:52:47.658Z,5.13
2018-07-27T20:55:15.943Z,4.23
2018-07-27T20:57:44.200Z,4.70
2018-07-27T21:00:13.900Z,5.03
2018-07-27T21:02:43.636Z,3.93
2018-07-27T21:05:12.858Z,5.00
2018-07-27T21:07:41.948Z,5.30
2018-07-27T21:10:10.852Z,4.30
2018-07-27T21:12:39.463Z,4.60
2018-07-27T21:15:07.780Z,4.90
2018-07-27T21:17:36.248Z,4.00
2018-07-27T21:20:05.349Z,5.07
2018-07-27T21:22:33.604Z,10.50
2018-07-27T21:25:01.872Z,9.30
2018-07-27T21:27:29.924Z,12.23
2018-07-27T21:29:58.307Z,12.93
2018-07-27T21:32:27.079Z,9.77
2018-07-27T21:34:55.421Z,9.03
2018-07-27T21:37:23.748Z,8.27
2018-07-27T21:39:52.310Z,10.43
2018-07-27T21:42:20.315Z,7.87
2018-07-27T21:44:48.574Z,9.47
2018-07-27T21:47:16.864Z,9.20
2018-07-27T21:49:45.135Z,8.87
2018-07-27T21:52:13.412Z,12.07
2018-07-27T21:54:41.676Z,10.93
2018-07-27T21:57:09.964Z,11.97
2018-07-27T21:59:38.553Z,8.17
2018-07-27T22:02:06.836Z,9.00
2018-07-27T22:04:35.175Z,11.80
2018-07-27T22:07:03.472Z,11.17
2018-07-27T22:09:31.769Z,10.43
2018-07-27T22:12:00.048Z,11.50
2018-07-27T22:14:28.381Z,11.17
2018-07-27T22:17:07.631Z,16.70
2018-07-27T22:19:35.944Z,12.17
2018-07-27T22:22:04.200Z,17.37
2018-07-27T22:24:32.504Z,14.17
2018-07-27T22:27:00.777Z,12.63
2018-07-27T22:29:29.064Z,18.87
2018-07-27T22:31:57.337Z,17.80
2018-07-27T22:34:25.362Z,16.33
2018-07-27T22:36:53.660Z,14.27
2018-07-27T22:39:21.952Z,16.23
2018-07-27T22:41:50.239Z,18.43
2018-07-27T22:44:18.879Z,20.67
2018-07-27T22:46:47.211Z,14.50
2018-07-27T22:49:15.621Z,15.27
2018-07-27T22:51:43.900Z,18.63
2018-07-27T22:54:12.545Z,21.10
2018-07-27T22:56:40.557Z,19.60
2018-07-27T22:59:08.832Z,20.60
2018-07-27T23:01:37.160Z,18.87
2018-07-27T23:04:05.936Z,18.90
2018-07-27T23:06:34.202Z,19.10
2018-07-27T23:09:02.516Z,20.60
2018-07-27T23:11:30.804Z,15.27
2018-07-27T23:13:59.096Z,22.20
2018-07-27T23:16:27.404Z,19.83
2018-07-27T23:18:55.684Z,21.53
2018-07-27T23:21:24.044Z,20.13
2018-07-27T23:23:52.338Z,22.70
2018-07-27T23:26:20.625Z,20.17
2018-07-27T23:28:48.925Z,16.80
2018-07-27T23:31:17.223Z,19.07
2018-07-27T23:33:48.633Z,18.17
2018-07-27T23:36:16.948Z,17.33
2018-07-27T23:38:45.237Z,15.73
2018-07-27T23:41:13.853Z,15.53
2018-07-27T23:43:42.160Z,18.93
2018-07-27T23:46:10.453Z,18.13
2018-07-27T23:48:38.744Z,17.30
2018-07-27T23:51:08.248Z,14.83
2018-07-27T23:53:37.260Z,17.03
2018-07-27T23:56:05.564Z,20.27
2018-07-27T23:58:33.859Z,18.77
